createdAt,value
2019-03-02T00:29:46.982Z,101362.78
2019-03-02T00:32:51.069Z,101368.50
2019-03-02T00:35:55.017Z,101372.91
2019-03-02T00:38:58.957Z,101368.13
2019-03-02T00:42:02.971Z,101364.19
2019-03-02T00:45:07.288Z,101370.77
2019-03-02T00:48:12.387Z,101360.67
2019-03-02T00:51:17.028Z,101359.81
2019-03-02T00:54:21.107Z,101362.47
2019-03-02T00:57:25.141Z,101356.33
2019-03-02T01:00:29.162Z,101350.61
2019-03-02T01:03:33.209Z,101350.16
2019-03-02T01:06:37.240Z,101349.81
2019-03-02T01:09:43.660Z,101348.53
2019-03-02T01:16:32.157Z,101344.24
2019-03-02T01:19:36.435Z,101342.09
2019-03-02T01:22:40.612Z,101337.33
2019-03-02T01:25:45.511Z,101331.72
2019-03-02T01:28:50.404Z,101332.20
2019-03-02T01:31:54.378Z,101327.40
2019-03-02T01:34:58.407Z,101336.13
2019-03-02T01:38:02.403Z,101338.75
2019-03-02T01:41:07.260Z,101337.02
2019-03-02T01:44:12.684Z,101327.88
2019-03-02T01:47:17.083Z,101326.56
2019-03-02T01:50:21.099Z,101326.12
2019-03-02T01:53:25.052Z,101322.66
2019-03-02T01:56:29.120Z,101311.30
2019-03-02T01:59:35.424Z,101318.74
2019-03-02T02:02:38.606Z,101317.05
2019-03-02T02:05:42.594Z,101319.66
2019-03-02T02:08:46.667Z,101313.97
2019-03-02T02:11:53.308Z,101321.00
2019-03-02T02:14:56.404Z,101317.07
2019-03-02T02:18:00.653Z,101310.09
2019-03-02T02:21:04.710Z,101307.05
2019-03-02T02:24:08.696Z,101304.44
2019-03-02T02:27:12.663Z,101299.64
2019-03-02T02:30:26.272Z,101294.39
2019-03-02T02:33:29.685Z,101295.27
2019-03-02T02:36:33.667Z,101290.02
2019-03-02T02:39:37.550Z,101284.36
2019-03-02T02:42:43.162Z,101278.66
2019-03-02T02:45:49.100Z,101278.21
2019-03-02T02:48:52.822Z,101279.95
2019-03-02T02:51:56.824Z,101273.33
2019-03-02T02:55:02.425Z,101275.45
2019-03-02T02:58:06.429Z,101271.95
2019-03-02T03:01:10.479Z,101272.02
2019-03-02T03:04:14.413Z,101264.98
2019-03-02T03:07:18.370Z,101260.58
2019-03-02T03:10:27.813Z,101261.45
2019-03-02T03:13:35.966Z,101255.75
2019-03-02T03:16:37.887Z,101258.36
2019-03-02T03:19:41.824Z,101261.83
2019-03-02T03:22:47.388Z,101262.63
2019-03-02T03:25:56.208Z,101261.32
2019-03-02T03:28:57.330Z,101263.97
2019-03-02T03:32:08.725Z,101256.94
2019-03-02T03:35:15.432Z,101256.92
2019-03-02T03:38:12.751Z,101251.72
2019-03-02T03:41:16.835Z,101247.40
2019-03-02T03:44:25.639Z,101236.94
2019-03-02T03:47:26.630Z,101248.73
2019-03-02T03:50:30.665Z,101250.06
2019-03-02T03:53:34.798Z,101252.27
2019-03-02T03:56:42.460Z,101247.50
2019-03-02T03:59:44.449Z,101249.24
2019-03-02T04:02:48.436Z,101248.41
2019-03-02T04:05:52.482Z,101247.93
2019-03-02T04:08:56.570Z,101246.23
2019-03-02T04:12:00.482Z,101247.98
2019-03-02T04:15:04.806Z,101253.23
2019-03-02T04:21:44.384Z,101253.19
2019-03-02T04:24:48.365Z,101247.55
2019-03-02T04:27:54.257Z,101249.74
2019-03-02T04:30:58.484Z,101243.20
2019-03-02T04:34:02.390Z,101240.58
2019-03-02T04:37:06.293Z,101239.72
2019-03-02T04:40:10.429Z,101239.27
2019-03-02T04:43:15.073Z,101241.89
2019-03-02T04:46:19.010Z,101242.31
2019-03-02T04:49:22.936Z,101245.80
2019-03-02T04:52:26.955Z,101243.20
2019-03-02T04:55:30.910Z,101237.53
2019-03-02T04:58:38.285Z,101242.36
2019-03-02T05:01:46.228Z,101245.88
2019-03-02T05:04:50.170Z,101245.00
2019-03-02T05:07:54.254Z,101248.89
2019-03-02T05:11:00.697Z,101249.75
2019-03-02T05:14:05.365Z,101251.98
2019-03-02T05:17:10.362Z,101244.98
2019-03-02T05:20:14.744Z,101247.17
2019-03-02T05:23:18.748Z,101247.67
2019-03-02T05:26:22.751Z,101241.58
2019-03-02T05:29:26.661Z,101249.48
2019-03-02T05:32:30.562Z,101240.75
2019-03-02T05:35:34.536Z,101240.75
2019-03-02T05:38:38.565Z,101239.88
2019-03-02T05:41:50.184Z,101242.57
2019-03-02T05:44:54.194Z,101239.06
2019-03-02T05:48:01.010Z,101233.95
2019-03-02T05:51:06.749Z,101226.11
2019-03-02T05:54:09.987Z,101227.38
2019-03-02T06:00:51.952Z,101230.20
2019-03-02T06:03:55.967Z,101213.98
2019-03-02T06:06:59.893Z,101225.34
2019-03-02T06:10:03.947Z,101217.86
2019-03-02T06:13:08.572Z,101221.80
2019-03-02T06:16:12.637Z,101224.88
2019-03-02T06:19:17.413Z,101229.25
2019-03-02T06:22:22.475Z,101227.53
2019-03-02T06:25:26.525Z,101228.41
2019-03-02T06:28:30.471Z,101227.13
2019-03-02T06:31:34.495Z,101227.14
2019-03-02T06:34:38.540Z,101228.05
2019-03-02T06:37:42.467Z,101228.55
2019-03-02T06:40:46.448Z,101228.56
2019-03-02T06:43:50.551Z,101229.87
2019-03-02T06:46:58.098Z,101227.27
2019-03-02T06:50:00.479Z,101216.30
2019-03-02T06:53:04.605Z,101217.17
2019-03-02T06:56:08.605Z,101221.99
2019-03-02T06:59:13.424Z,101220.24
2019-03-02T07:02:37.737Z,101222.42
2019-03-02T07:05:41.777Z,101214.54
2019-03-02T07:08:45.877Z,101218.91
2019-03-02T07:11:50.932Z,101218.47
2019-03-02T07:14:54.968Z,101221.53
2019-03-02T07:18:24.959Z,101227.21
2019-03-02T07:21:28.928Z,101221.98
2019-03-02T07:24:32.837Z,101220.29
2019-03-02T07:27:37.016Z,101226.89
2019-03-02T07:30:41.208Z,101230.84
2019-03-02T07:33:45.231Z,101219.47
2019-03-02T07:36:49.218Z,101224.34
2019-03-02T07:39:53.238Z,101224.77
2019-03-02T07:42:57.339Z,101229.16
2019-03-02T07:46:01.232Z,101230.03
2019-03-02T07:49:05.185Z,101223.45
2019-03-02T07:52:09.249Z,101224.73
2019-03-02T07:55:14.787Z,101230.91
2019-03-02T07:58:21.363Z,101229.62
2019-03-02T08:01:25.208Z,101235.31
2019-03-02T08:04:29.236Z,101225.66
2019-03-02T08:07:34.113Z,101227.84
2019-03-02T08:10:39.860Z,101224.77
2019-03-02T08:13:43.717Z,101225.25
2019-03-02T08:16:47.613Z,101219.58
2019-03-02T08:19:51.662Z,101218.68
2019-03-02T08:22:55.691Z,101217.80
2019-03-02T08:25:59.995Z,101213.43
2019-03-02T08:29:04.068Z,101216.52
2019-03-02T08:32:08.059Z,101219.13
2019-03-02T08:35:12.809Z,101225.73
2019-03-02T08:38:16.748Z,101214.33
2019-03-02T08:41:20.889Z,101215.63
2019-03-02T08:44:25.062Z,101213.45
2019-03-02T08:47:28.877Z,101214.30
2019-03-02T08:50:32.926Z,101218.70
2019-03-02T08:53:36.893Z,101211.25
2019-03-02T08:56:43.867Z,101212.98
2019-03-02T08:59:46.647Z,101216.48
2019-03-02T09:02:59.068Z,101212.97
2019-03-02T09:06:11.078Z,101213.84
2019-03-02T09:09:09.510Z,101216.06
2019-03-02T09:12:13.429Z,101211.64
2019-03-02T09:15:22.292Z,101219.55
2019-03-02T09:18:30.721Z,101219.98
2019-03-02T09:21:34.568Z,101216.92
2019-03-02T09:24:38.937Z,101218.72
2019-03-02T09:27:43.315Z,101222.21
2019-03-02T09:30:48.190Z,101214.74
2019-03-02T09:33:52.875Z,101219.14
2019-03-02T09:36:57.290Z,101212.10
2019-03-02T09:40:01.504Z,101215.13
2019-03-02T09:43:05.724Z,101214.70
2019-03-02T09:46:09.843Z,101214.67
2019-03-02T09:49:14.134Z,101214.20
2019-03-02T09:52:18.644Z,101208.02
2019-03-02T09:55:22.720Z,101212.48
2019-03-02T09:58:26.705Z,101215.12
2019-03-02T10:01:31.028Z,101209.87
2019-03-02T10:04:35.822Z,101212.47
2019-03-02T10:07:44.168Z,101217.70
2019-03-02T10:10:48.394Z,101205.36
2019-03-02T10:13:55.598Z,101203.22
2019-03-02T10:16:59.863Z,101207.58
2019-03-02T10:20:05.215Z,101219.03
2019-03-02T10:23:09.966Z,101204.58
2019-03-02T10:26:15.812Z,101215.55
2019-03-02T10:29:32.453Z,101209.90
2019-03-02T10:32:36.847Z,101214.71
2019-03-02T10:35:42.836Z,101217.24
2019-03-02T10:38:46.978Z,101213.78
2019-03-02T10:41:57.073Z,101198.44
2019-03-02T10:45:00.284Z,101202.80
2019-03-02T10:48:04.548Z,101197.58
2019-03-02T10:51:08.782Z,101190.54
2019-03-02T10:54:13.152Z,101188.76
2019-03-02T10:57:17.252Z,101183.95
2019-03-02T11:00:29.242Z,101191.38
2019-03-02T11:03:31.761Z,101205.88
2019-03-02T11:06:56.650Z,101184.40
2019-03-02T11:10:12.921Z,101183.52
2019-03-02T11:13:31.124Z,101177.36
2019-03-02T11:16:44.526Z,101161.55
2019-03-02T11:20:03.816Z,101160.70
2019-03-02T11:23:25.700Z,101157.11
2019-03-02T11:26:48.809Z,101151.38
2019-03-02T11:30:22.773Z,101166.37
2019-03-02T11:33:43.313Z,101159.70
2019-03-02T11:37:13.697Z,101160.61
2019-03-02T11:40:45.532Z,101154.46
2019-03-02T11:44:14.284Z,101157.98
2019-03-02T11:48:24.117Z,101148.68
2019-03-02T11:51:40.806Z,101142.98
2019-03-02T11:55:06.967Z,101138.50
2019-03-02T12:01:51.573Z,101138.47
2019-03-02T12:05:12.860Z,101135.95
2019-03-02T12:08:41.982Z,101130.69
2019-03-02T12:11:56.394Z,101135.50
2019-03-02T12:15:18.301Z,101115.66
2019-03-02T12:18:39.805Z,101118.13
2019-03-02T12:22:05.575Z,101109.00
2019-03-02T12:25:47.492Z,101113.59
2019-03-02T12:29:13.368Z,101103.47
2019-03-02T12:32:35.677Z,101101.32
2019-03-02T12:35:51.173Z,101103.84
2019-03-02T12:39:08.636Z,101090.22
2019-03-02T12:42:26.715Z,101087.19
2019-03-02T12:45:45.165Z,101089.66
2019-03-02T12:48:55.524Z,101096.84
2019-03-02T12:52:21.713Z,101089.88
2019-03-02T12:55:56.782Z,101083.74
2019-03-02T12:59:20.944Z,101088.63
2019-03-02T13:02:51.302Z,101089.22
2019-03-02T13:06:04.311Z,101087.30
2019-03-02T13:09:19.910Z,101077.78
2019-03-02T13:12:45.777Z,101072.66
2019-03-02T13:16:27.019Z,101063.81
2019-03-02T13:19:48.535Z,101068.66
2019-03-02T13:23:06.551Z,101065.99
2019-03-02T13:26:25.050Z,101072.66
2019-03-02T13:29:39.436Z,101059.50
2019-03-02T13:32:59.969Z,101062.11
2019-03-02T13:36:21.757Z,101054.58
2019-03-02T13:39:51.211Z,101055.50
2019-03-02T13:43:04.606Z,101056.77
2019-03-02T13:46:31.059Z,101053.22
2019-03-02T13:49:45.267Z,101058.54
2019-03-02T13:53:26.393Z,101054.20
2019-03-02T13:56:46.217Z,101048.91
2019-03-02T14:00:09.244Z,101049.94
2019-03-02T14:03:20.806Z,101055.20
2019-03-02T14:06:43.734Z,101050.33
2019-03-02T14:10:15.749Z,101045.97
2019-03-02T14:13:47.824Z,101035.78
2019-03-02T14:16:59.098Z,101035.38
2019-03-02T14:20:26.147Z,101030.05
2019-03-02T14:23:37.685Z,101036.64
2019-03-02T14:26:46.999Z,101023.48
2019-03-02T14:30:02.886Z,101021.77
2019-03-02T14:33:29.395Z,101024.40
2019-03-02T14:36:36.645Z,101019.25
2019-03-02T14:40:02.022Z,101012.18
2019-03-02T14:43:23.768Z,101010.41
2019-03-02T14:46:34.392Z,101009.59
2019-03-02T14:50:02.080Z,101001.73
2019-03-02T14:53:25.130Z,100987.73
2019-03-02T14:56:39.817Z,100973.62
2019-03-02T15:00:05.069Z,100985.93
2019-03-02T15:03:29.320Z,100975.83
2019-03-02T15:06:49.944Z,100978.41
2019-03-02T15:10:10.141Z,100975.80
2019-03-02T15:13:38.240Z,100971.39
2019-03-02T15:17:01.168Z,100976.25
2019-03-02T15:20:23.808Z,100973.63
2019-03-02T15:23:38.938Z,100968.30
2019-03-02T15:27:08.006Z,100958.65
2019-03-02T15:30:40.017Z,100953.80
2019-03-02T15:33:56.059Z,100955.17
2019-03-02T15:37:09.325Z,100941.63
2019-03-02T15:40:32.312Z,100940.69
2019-03-02T15:44:00.200Z,100941.14
2019-03-02T15:47:23.389Z,100942.87
2019-03-02T15:50:38.597Z,100928.72
2019-03-02T15:54:00.113Z,100915.58
2019-03-02T15:57:39.617Z,100915.58
2019-03-02T16:00:50.539Z,100923.91
2019-03-02T16:04:12.551Z,100909.88
2019-03-02T16:07:34.990Z,100910.77
2019-03-02T16:10:58.789Z,100902.37
2019-03-02T16:14:21.843Z,100892.69
2019-03-02T16:17:41.471Z,100877.77
2019-03-02T16:20:50.668Z,100880.37
2019-03-02T16:24:04.545Z,100868.94
2019-03-02T16:27:30.145Z,100875.95
2019-03-02T16:30:40.370Z,100872.92
2019-03-02T16:34:04.259Z,100875.09
2019-03-02T16:37:25.078Z,100868.44
2019-03-02T16:40:47.921Z,100874.66
2019-03-02T16:44:05.144Z,100861.06
2019-03-02T16:47:44.895Z,100852.30
2019-03-02T16:51:06.359Z,100846.99
2019-03-02T16:54:33.242Z,100836.95
2019-03-02T16:57:55.058Z,100836.56
2019-03-02T17:01:30.151Z,100833.50
2019-03-02T17:04:55.407Z,100836.59
2019-03-02T17:08:14.017Z,100832.67
2019-03-02T17:11:37.101Z,100828.72
2019-03-02T17:14:58.767Z,100825.62
2019-03-02T17:18:17.061Z,100833.99
2019-03-02T17:21:32.770Z,100832.22
2019-03-02T17:24:54.061Z,100837.05
2019-03-02T17:28:13.248Z,100831.39
2019-03-02T17:31:40.454Z,100830.47
2019-03-02T17:35:02.489Z,100833.92
2019-03-02T17:38:31.432Z,100824.27
2019-03-02T17:42:00.421Z,100815.09
2019-03-02T17:45:26.591Z,100819.89
2019-03-02T17:48:52.885Z,100815.05
2019-03-02T17:52:15.560Z,100812.38
2019-03-02T17:55:28.460Z,100818.58
2019-03-02T17:58:45.255Z,100812.87
2019-03-02T18:02:11.202Z,100820.72
2019-03-02T18:05:31.390Z,100816.80
2019-03-02T18:08:57.778Z,100816.30
2019-03-02T18:12:19.361Z,100826.38
2019-03-02T18:15:39.777Z,100811.45
2019-03-02T18:18:43.591Z,100807.50
2019-03-02T18:21:47.482Z,100807.50
2019-03-02T18:24:51.394Z,100807.47
2019-03-02T18:27:55.699Z,100802.08
2019-03-02T18:30:59.828Z,100797.74
2019-03-02T18:34:09.772Z,100796.88
2019-03-02T18:37:13.732Z,100797.70
2019-03-02T18:40:17.858Z,100783.13
2019-03-02T18:43:21.763Z,100771.77
2019-03-02T18:46:25.690Z,100762.13
2019-03-02T18:49:38.087Z,100762.58
2019-03-02T18:53:15.911Z,100762.16
2019-03-02T18:56:20.004Z,100757.39
2019-03-02T18:59:23.959Z,100749.11
2019-03-02T19:02:29.096Z,100744.30
2019-03-02T19:05:33.223Z,100739.92
2019-03-02T19:08:37.046Z,100727.21
2019-03-02T19:11:40.891Z,100732.06
2019-03-02T19:14:44.719Z,100729.34
2019-03-02T19:17:48.678Z,100717.48
2019-03-02T19:20:52.504Z,100713.92
2019-03-02T19:23:56.322Z,100713.53
2019-03-02T19:27:00.220Z,100712.60
2019-03-02T19:30:04.205Z,100706.48
2019-03-02T19:33:08.161Z,100695.05
2019-03-02T19:36:11.995Z,100688.88
2019-03-02T19:39:22.280Z,100681.83
2019-03-02T19:42:26.177Z,100668.59
2019-03-02T19:45:30.101Z,100667.28
2019-03-02T19:48:33.888Z,100655.75
2019-03-02T19:51:37.830Z,100652.73
2019-03-02T19:54:41.661Z,100644.41
2019-03-02T19:57:45.641Z,100637.73
2019-03-02T20:00:49.536Z,100642.09
2019-03-02T20:03:53.405Z,100634.67
2019-03-02T20:06:57.373Z,100636.03
2019-03-02T20:10:01.371Z,100629.96
2019-03-02T20:13:05.316Z,100622.86
2019-03-02T20:16:11.966Z,100612.41
2019-03-02T20:19:18.322Z,100608.52
2019-03-02T20:22:22.390Z,100608.52
2019-03-02T20:25:26.256Z,100600.19
2019-03-02T20:28:30.068Z,100596.65
2019-03-02T20:31:34.291Z,100591.23
2019-03-02T20:34:38.312Z,100587.75
2019-03-02T20:37:42.354Z,100577.16
2019-03-02T20:40:46.218Z,100571.05
2019-03-02T20:43:50.352Z,100568.41
2019-03-02T20:46:54.372Z,100574.58
2019-03-02T20:49:58.711Z,100574.09
2019-03-02T20:53:02.756Z,100567.98
2019-03-02T20:56:06.896Z,100570.09
2019-03-02T20:59:10.952Z,100569.66
2019-03-02T21:02:14.914Z,100552.84
2019-03-02T21:05:18.941Z,100559.44
2019-03-02T21:08:22.860Z,100548.90
2019-03-02T21:11:26.938Z,100546.31
2019-03-02T21:14:30.934Z,100539.77
2019-03-02T21:17:34.842Z,100541.89
2019-03-02T21:20:39.081Z,100530.88
2019-03-02T21:23:42.998Z,100534.02
2019-03-02T21:26:47.090Z,100526.38
2019-03-02T21:29:50.918Z,100522.11
2019-03-02T21:32:55.168Z,100510.25
2019-03-02T21:35:59.035Z,100508.93
2019-03-02T21:39:02.925Z,100506.30
2019-03-02T21:42:06.897Z,100495.28
2019-03-02T21:45:13.108Z,100490.11
2019-03-02T21:48:16.949Z,100492.33
2019-03-02T21:51:22.719Z,100483.00
2019-03-02T21:54:26.606Z,100474.73
2019-03-02T21:57:30.536Z,100475.22
2019-03-02T22:00:34.350Z,100469.02
2019-03-02T22:03:38.301Z,100468.91
2019-03-02T22:06:42.214Z,100467.30
2019-03-02T22:09:46.050Z,100459.88
2019-03-02T22:12:50.158Z,100456.28
2019-03-02T22:15:54.154Z,100449.70
2019-03-02T22:18:58.074Z,100443.16
2019-03-02T22:22:01.932Z,100440.47
2019-03-02T22:25:06.783Z,100440.95
2019-03-02T22:28:10.802Z,100439.16
2019-03-02T22:31:14.959Z,100430.39
2019-03-02T22:34:19.305Z,100420.63
2019-03-02T22:37:23.165Z,100408.34
2019-03-02T22:40:27.432Z,100399.12
2019-03-02T22:43:31.588Z,100389.77
2019-03-02T22:46:35.542Z,100391.03
2019-03-02T22:49:39.767Z,100369.73
2019-03-02T22:52:43.916Z,100377.64
2019-03-02T22:55:47.943Z,100374.38
2019-03-02T22:58:51.254Z,100362.91
2019-03-02T23:02:18.674Z,100363.26
2019-03-02T23:05:22.570Z,100368.89
2019-03-02T23:08:26.534Z,100365.41
2019-03-02T23:11:30.910Z,100360.14
2019-03-02T23:14:35.018Z,100351.67
2019-03-02T23:17:39.042Z,100342.89
2019-03-02T23:20:43.138Z,100345.22
2019-03-02T23:23:47.591Z,100342.58
2019-03-02T23:26:51.508Z,100347.02
2019-03-02T23:29:55.668Z,100346.53
2019-03-02T23:32:59.851Z,100346.94
2019-03-02T23:36:03.782Z,100344.80
2019-03-02T23:39:08.071Z,100350.07
2019-03-02T23:42:12.044Z,100342.44
2019-03-02T23:45:16.056Z,100344.78
2019-03-02T23:48:19.991Z,100341.66
2019-03-02T23:51:23.811Z,100337.37
2019-03-02T23:54:27.696Z,100331.80
2019-03-02T23:57:31.558Z,100331.16
